createdAt,value
2023-05-14T00:01:53.673Z,1017.7
2023-05-14T00:04:54.428Z,1017.7
2023-05-14T00:07:53.549Z,1017.7
2023-05-14T00:10:53.820Z,1017.7
2023-05-14T00:13:53.508Z,1017.7
2023-05-14T00:16:55.648Z,1017.7
2023-05-14T00:19:53.744Z,1017.6
2023-05-14T00:22:53.596Z,1017.6
2023-05-14T00:25:53.672Z,1017.6
2023-05-14T00:28:53.442Z,1017.6
2023-05-14T00:31:53.716Z,1017.6
2023-05-14T00:34:53.547Z,1017.5
2023-05-14T00:37:53.421Z,1017.5
2023-05-14T00:40:53.934Z,1017.4
2023-05-14T00:43:53.611Z,1017.4
2023-05-14T00:46:53.542Z,1017.3
2023-05-14T00:49:53.546Z,1017.3
2023-05-14T00:52:53.877Z,1017.3
2023-05-14T00:55:53.551Z,1017.3
2023-05-14T00:58:53.478Z,1017.3
2023-05-14T01:01:53.956Z,1017.3
2023-05-14T01:04:54.156Z,1017.4
2023-05-14T01:07:53.499Z,1017.4
2023-05-14T01:10:53.665Z,1017.3
2023-05-14T01:13:53.559Z,1017.3
2023-05-14T01:16:53.752Z,1017.3
2023-05-14T01:19:53.680Z,1017.2
2023-05-14T01:22:53.616Z,1017.2
2023-05-14T01:25:53.499Z,1017.2
2023-05-14T01:28:53.430Z,1017.2
2023-05-14T01:31:53.661Z,1017.2
2023-05-14T01:34:53.688Z,1017.2
2023-05-14T01:37:54.468Z,1017.2
2023-05-14T01:40:53.808Z,1017.1
2023-05-14T01:43:53.788Z,1017.1
2023-05-14T01:46:53.697Z,1017.1
2023-05-14T01:49:53.496Z,1017.2
2023-05-14T01:52:53.583Z,1017.1
2023-05-14T01:55:53.433Z,1017.2
2023-05-14T01:58:53.419Z,1017.2
2023-05-14T02:01:53.816Z,1017.1
2023-05-14T02:04:53.821Z,1017.0
2023-05-14T02:07:53.478Z,1017.0
2023-05-14T02:10:53.695Z,1017.1
2023-05-14T02:13:53.534Z,1017.1
2023-05-14T02:16:53.618Z,1017.1
2023-05-14T02:19:53.660Z,1017.0
2023-05-14T02:22:53.437Z,1017.0
2023-05-14T02:25:53.504Z,1017.0
2023-05-14T02:28:53.515Z,1017.0
2023-05-14T02:31:53.794Z,1017.0
2023-05-14T02:34:53.890Z,1016.9
2023-05-14T02:37:54.604Z,1016.9
2023-05-14T02:40:55.172Z,1016.9
2023-05-14T02:43:53.563Z,1016.9
2023-05-14T02:46:53.699Z,1016.9
2023-05-14T02:49:53.545Z,1016.9
2023-05-14T02:52:53.455Z,1016.8
2023-05-14T02:55:53.541Z,1016.9
2023-05-14T02:58:58.973Z,1016.9
2023-05-14T03:01:55.960Z,1016.9
2023-05-14T03:04:54.568Z,1016.9
2023-05-14T03:07:53.634Z,1016.9
2023-05-14T03:10:53.806Z,1016.9
2023-05-14T03:13:53.483Z,1016.8
2023-05-14T03:16:53.705Z,1016.8
2023-05-14T03:19:53.665Z,1016.8
2023-05-14T03:22:53.438Z,1016.8
2023-05-14T03:25:53.570Z,1016.7
2023-05-14T03:28:53.657Z,1016.7
2023-05-14T03:31:53.663Z,1016.7
2023-05-14T03:34:53.572Z,1016.7
2023-05-14T03:37:53.601Z,1016.7
2023-05-14T03:40:54.034Z,1016.7
2023-05-14T03:43:53.487Z,1016.7
2023-05-14T03:46:53.605Z,1016.7
2023-05-14T03:49:53.956Z,1016.7
2023-05-14T03:52:53.538Z,1016.7
2023-05-14T03:55:53.477Z,1016.7
2023-05-14T03:58:53.491Z,1016.7
2023-05-14T04:01:53.624Z,1016.6
2023-05-14T04:04:54.605Z,1016.5
2023-05-14T04:07:53.459Z,1016.6
2023-05-14T04:10:53.645Z,1016.6
2023-05-14T04:13:53.562Z,1016.6
2023-05-14T04:16:53.628Z,1016.7
2023-05-14T04:19:53.803Z,1016.7
2023-05-14T04:22:54.153Z,1016.7
2023-05-14T04:25:53.560Z,1016.7
2023-05-14T04:28:53.515Z,1016.7
2023-05-14T04:31:53.617Z,1016.7
2023-05-14T04:34:53.464Z,1016.7
2023-05-14T04:37:54.599Z,1016.7
2023-05-14T04:40:53.651Z,1016.6
2023-05-14T04:43:53.491Z,1016.6
2023-05-14T04:46:55.465Z,1016.6
2023-05-14T04:49:53.796Z,1016.5
2023-05-14T04:52:53.525Z,1016.5
2023-05-14T04:55:53.791Z,1016.5
2023-05-14T04:58:53.465Z,1016.5
2023-05-14T05:01:53.869Z,1016.5
2023-05-14T05:04:54.087Z,1016.5
2023-05-14T05:07:53.486Z,1016.5
2023-05-14T05:10:55.706Z,1016.6
2023-05-14T05:13:53.596Z,1016.6
2023-05-14T05:16:53.693Z,1016.7
2023-05-14T05:20:03.621Z,1016.7
2023-05-14T05:22:53.524Z,1016.7
2023-05-14T05:25:54.718Z,1016.7
2023-05-14T05:28:53.512Z,1016.7
2023-05-14T05:31:53.738Z,1016.8
2023-05-14T05:34:53.706Z,1016.8
2023-05-14T05:37:53.639Z,1016.9
2023-05-14T05:40:53.611Z,1016.9
2023-05-14T05:43:53.450Z,1016.8
2023-05-14T05:46:53.675Z,1016.8
2023-05-14T05:49:53.624Z,1016.8
2023-05-14T05:52:53.444Z,1016.8
2023-05-14T05:55:53.529Z,1016.8
2023-05-14T05:58:53.412Z,1016.8
2023-05-14T06:01:53.673Z,1016.9
2023-05-14T06:04:53.627Z,1016.9
2023-05-14T06:07:53.820Z,1016.9
2023-05-14T06:10:53.632Z,1016.9
2023-05-14T06:13:53.546Z,1016.9
2023-05-14T06:16:53.787Z,1016.9
2023-05-14T06:19:53.801Z,1016.8
2023-05-14T06:22:53.562Z,1016.9
2023-05-14T06:25:53.596Z,1016.9
2023-05-14T06:28:53.552Z,1016.9
2023-05-14T06:31:53.611Z,1016.9
2023-05-14T06:34:55.128Z,1016.9
2023-05-14T06:37:53.516Z,1017.0
2023-05-14T06:40:53.777Z,1016.9
2023-05-14T06:43:53.542Z,1016.9
2023-05-14T06:46:54.168Z,1017.0
2023-05-14T06:49:54.036Z,1017.0
2023-05-14T06:52:53.583Z,1017.0
2023-05-14T06:55:53.486Z,1016.9
2023-05-14T06:58:53.480Z,1016.9
2023-05-14T07:01:56.356Z,1016.9
2023-05-14T07:04:53.716Z,1016.9
2023-05-14T07:07:53.565Z,1016.8
2023-05-14T07:10:53.635Z,1016.8
2023-05-14T07:13:53.558Z,1016.8
2023-05-14T07:16:53.538Z,1016.8
2023-05-14T07:19:53.934Z,1016.8
2023-05-14T07:22:56.690Z,1016.8
2023-05-14T07:25:53.520Z,1016.8
2023-05-14T07:28:53.473Z,1016.8
2023-05-14T07:31:53.940Z,1016.8
2023-05-14T07:34:53.618Z,1016.8
2023-05-14T07:37:55.485Z,1016.7
2023-05-14T07:40:53.774Z,1016.7
2023-05-14T07:44:03.494Z,1016.7
2023-05-14T07:46:53.674Z,1016.6
2023-05-14T07:49:54.003Z,1016.6
2023-05-14T07:52:53.574Z,1016.6
2023-05-14T07:55:55.289Z,1016.6
2023-05-14T07:58:53.479Z,1016.6
2023-05-14T08:01:55.613Z,1016.6
2023-05-14T08:04:54.387Z,1016.5
2023-05-14T08:07:53.500Z,1016.5
2023-05-14T08:10:53.897Z,1016.6
2023-05-14T08:13:53.455Z,1016.5
2023-05-14T08:16:53.605Z,1016.5
2023-05-14T08:19:53.896Z,1016.5
2023-05-14T08:22:56.091Z,1016.5
2023-05-14T08:25:53.527Z,1016.5
2023-05-14T08:28:53.626Z,1016.6
2023-05-14T08:31:53.773Z,1016.5
2023-05-14T08:34:53.609Z,1016.6
2023-05-14T08:37:53.581Z,1016.7
2023-05-14T08:40:53.786Z,1016.6
2023-05-14T08:43:53.578Z,1016.6
2023-05-14T08:46:53.514Z,1016.7
2023-05-14T08:49:54.233Z,1016.5
2023-05-14T08:52:53.472Z,1016.5
2023-05-14T08:55:53.616Z,1016.5
2023-05-14T08:58:53.489Z,1016.5
2023-05-14T09:01:53.831Z,1016.5
2023-05-14T09:04:53.947Z,1016.5
2023-05-14T09:07:53.580Z,1016.5
2023-05-14T09:10:53.756Z,1016.5
2023-05-14T09:13:54.084Z,1016.4
2023-05-14T09:16:54.098Z,1016.4
2023-05-14T09:19:54.030Z,1016.4
2023-05-14T09:22:54.331Z,1016.4
2023-05-14T09:25:53.486Z,1016.4
2023-05-14T09:28:53.525Z,1016.3
2023-05-14T09:31:53.733Z,1016.3
2023-05-14T09:34:53.603Z,1016.2
2023-05-14T09:37:53.476Z,1016.2
2023-05-14T09:40:53.728Z,1016.2
2023-05-14T09:43:54.582Z,1016.1
2023-05-14T09:46:53.566Z,1016.1
2023-05-14T09:49:53.720Z,1016.1
2023-05-14T09:52:54.903Z,1016.1
2023-05-14T09:55:53.501Z,1016.0
2023-05-14T09:58:53.481Z,1016.0
2023-05-14T10:01:53.999Z,1016.0
2023-05-14T10:04:56.914Z,1016.0
2023-05-14T10:07:53.463Z,1016.0
2023-05-14T10:10:53.774Z,1015.9
2023-05-14T10:13:53.504Z,1015.9
2023-05-14T10:16:53.828Z,1015.9
2023-05-14T10:19:54.196Z,1015.9
2023-05-14T10:22:53.522Z,1015.9
2023-05-14T10:25:53.628Z,1015.9
2023-05-14T10:28:53.540Z,1015.9
2023-05-14T10:31:53.856Z,1015.8
2023-05-14T10:34:53.841Z,1015.8
2023-05-14T10:37:53.503Z,1015.7
2023-05-14T10:40:54.291Z,1015.7
2023-05-14T10:43:53.620Z,1015.6
2023-05-14T10:46:53.819Z,1015.6
2023-05-14T10:50:03.516Z,1015.5
2023-05-14T10:52:53.728Z,1015.6
2023-05-14T10:55:53.450Z,1015.5
2023-05-14T10:58:53.455Z,1015.5
2023-05-14T11:01:53.582Z,1015.5
2023-05-14T11:04:53.835Z,1015.4
2023-05-14T11:07:53.554Z,1015.4
2023-05-14T11:10:53.551Z,1015.3
2023-05-14T11:13:53.545Z,1015.3
2023-05-14T11:17:03.548Z,1015.3
2023-05-14T11:19:53.822Z,1015.2
2023-05-14T11:22:53.890Z,1015.2
2023-05-14T11:25:53.510Z,1015.2
2023-05-14T11:28:53.630Z,1015.2
2023-05-14T11:31:53.708Z,1015.2
2023-05-14T11:34:55.290Z,1015.1
2023-05-14T11:37:53.512Z,1015.1
2023-05-14T11:40:53.583Z,1015.1
2023-05-14T11:43:53.592Z,1015.1
2023-05-14T11:46:53.807Z,1015.0
2023-05-14T11:49:53.564Z,1015.1
2023-05-14T11:52:53.512Z,1015.0
2023-05-14T11:55:53.595Z,1015.0
2023-05-14T11:58:53.646Z,1015.0
2023-05-14T12:01:53.801Z,1015.0
2023-05-14T12:04:54.602Z,1014.9
2023-05-14T12:07:53.472Z,1014.9
2023-05-14T12:10:53.874Z,1014.8
2023-05-14T12:13:53.532Z,1014.8
2023-05-14T12:16:54.607Z,1014.8
2023-05-14T12:20:02.041Z,1014.8
2023-05-14T12:22:53.634Z,1014.8
2023-05-14T12:25:53.526Z,1014.8
2023-05-14T12:28:54.819Z,1014.7
2023-05-14T12:32:03.597Z,1014.7
2023-05-14T12:34:54.076Z,1014.6
2023-05-14T12:38:03.612Z,1014.7
2023-05-14T12:40:53.447Z,1014.7
2023-05-14T12:43:53.470Z,1014.7
2023-05-14T12:46:53.675Z,1014.6
2023-05-14T12:49:55.635Z,1014.6
2023-05-14T12:53:11.647Z,1014.5
2023-05-14T12:55:53.569Z,1014.5
2023-05-14T12:58:53.443Z,1014.5
2023-05-14T13:01:53.876Z,1014.5
2023-05-14T13:04:53.881Z,1014.5
2023-05-14T13:07:53.626Z,1014.5
2023-05-14T13:10:53.538Z,1014.5
2023-05-14T13:13:53.529Z,1014.4
2023-05-14T13:16:53.801Z,1014.5
2023-05-14T13:19:54.035Z,1014.5
2023-05-14T13:22:53.579Z,1014.4
2023-05-14T13:25:53.898Z,1014.4
2023-05-14T13:28:53.463Z,1014.3
2023-05-14T13:31:53.746Z,1014.3
2023-05-14T13:34:53.492Z,1014.3
2023-05-14T13:37:53.474Z,1014.3
2023-05-14T13:40:55.943Z,1014.3
2023-05-14T13:43:53.462Z,1014.3
2023-05-14T13:46:53.806Z,1014.2
2023-05-14T13:49:53.742Z,1014.2
2023-05-14T13:52:53.547Z,1014.2
2023-05-14T13:55:53.717Z,1014.2
2023-05-14T13:58:53.481Z,1014.1
2023-05-14T14:01:54.583Z,1014.1
2023-05-14T14:04:53.531Z,1014.1
2023-05-14T14:08:21.807Z,1014.1
2023-05-14T14:10:53.567Z,1014.0
2023-05-14T14:13:53.697Z,1014.0
2023-05-14T14:16:53.881Z,1014.0
2023-05-14T14:19:53.723Z,1013.9
2023-05-14T14:22:53.529Z,1013.9
2023-05-14T14:25:53.782Z,1013.9
2023-05-14T14:28:53.990Z,1013.9
2023-05-14T14:31:53.712Z,1013.9
2023-05-14T14:34:53.511Z,1013.9
2023-05-14T14:37:55.528Z,1013.9
2023-05-14T14:40:53.459Z,1013.9
2023-05-14T14:43:53.528Z,1013.9
2023-05-14T14:46:53.918Z,1013.9
2023-05-14T14:49:53.589Z,1013.8
2023-05-14T14:52:53.566Z,1013.8
2023-05-14T14:55:53.822Z,1013.8
2023-05-14T14:58:53.571Z,1013.8
2023-05-14T15:01:55.628Z,1013.8
2023-05-14T15:04:53.968Z,1013.8
2023-05-14T15:07:53.551Z,1013.8
2023-05-14T15:10:53.656Z,1013.8
2023-05-14T15:13:53.514Z,1013.8
2023-05-14T15:16:53.673Z,1013.8
2023-05-14T15:19:53.688Z,1013.8
2023-05-14T15:22:53.517Z,1013.8
2023-05-14T15:25:53.682Z,1013.8
2023-05-14T15:28:53.512Z,1013.7
2023-05-14T15:31:53.733Z,1013.7
2023-05-14T15:34:53.610Z,1013.7
2023-05-14T15:37:53.549Z,1013.7
2023-05-14T15:40:53.456Z,1013.7
2023-05-14T15:43:53.475Z,1013.6
2023-05-14T15:46:53.949Z,1013.6
2023-05-14T15:49:53.776Z,1013.6
2023-05-14T15:52:53.578Z,1013.6
2023-05-14T15:55:53.510Z,1013.5
2023-05-14T15:58:56.632Z,1013.5
2023-05-14T16:01:53.629Z,1013.5
2023-05-14T16:04:54.212Z,1013.5
2023-05-14T16:07:56.418Z,1013.6
2023-05-14T16:10:53.961Z,1013.6
2023-05-14T16:13:53.540Z,1013.6
2023-05-14T16:16:53.811Z,1013.6
2023-05-14T16:19:56.026Z,1013.7
2023-05-14T16:22:53.410Z,1013.6
2023-05-14T16:25:53.508Z,1013.6
2023-05-14T16:28:53.470Z,1013.6
2023-05-14T16:31:53.422Z,1013.7
2023-05-14T16:34:53.561Z,1013.6
2023-05-14T16:37:53.499Z,1013.7
2023-05-14T16:40:56.834Z,1013.7
2023-05-14T16:43:53.958Z,1013.6
2023-05-14T16:46:54.098Z,1013.7
2023-05-14T16:49:53.533Z,1013.7
2023-05-14T16:52:53.483Z,1013.7
2023-05-14T16:55:53.499Z,1013.7
2023-05-14T16:58:53.462Z,1013.7
2023-05-14T17:01:58.108Z,1013.8
2023-05-14T17:04:55.096Z,1013.7
2023-05-14T17:07:54.110Z,1013.7
2023-05-14T17:10:53.401Z,1013.7
2023-05-14T17:13:53.555Z,1013.7
2023-05-14T17:16:55.154Z,1013.7
2023-05-14T17:19:53.939Z,1013.7
2023-05-14T17:22:53.457Z,1013.6
2023-05-14T17:25:53.789Z,1013.7
2023-05-14T17:28:53.786Z,1013.7
2023-05-14T17:31:53.794Z,1013.7
2023-05-14T17:34:53.740Z,1013.7
2023-05-14T17:37:53.470Z,1013.8
2023-05-14T17:40:53.609Z,1013.8
2023-05-14T17:43:53.463Z,1013.8
2023-05-14T17:47:03.850Z,1013.8
2023-05-14T17:49:53.546Z,1013.8
2023-05-14T17:52:54.431Z,1013.9
2023-05-14T17:55:53.550Z,1013.9
2023-05-14T17:58:53.546Z,1013.9
2023-05-14T18:01:53.769Z,1013.9
2023-05-14T18:04:54.111Z,1013.9
2023-05-14T18:07:53.589Z,1014.0
2023-05-14T18:10:53.509Z,1014.0
2023-05-14T18:13:53.541Z,1014.0
2023-05-14T18:16:53.599Z,1014.0
2023-05-14T18:19:53.695Z,1014.0
2023-05-14T18:22:53.548Z,1014.0
2023-05-14T18:25:55.076Z,1014.1
2023-05-14T18:28:53.610Z,1014.1
2023-05-14T18:31:53.892Z,1014.0
2023-05-14T18:34:53.542Z,1014.1
2023-05-14T18:37:53.626Z,1014.0
2023-05-14T18:40:53.621Z,1014.0
2023-05-14T18:43:53.510Z,1014.1
2023-05-14T18:46:54.223Z,1014.1
2023-05-14T18:49:53.604Z,1014.2
2023-05-14T18:52:53.580Z,1014.2
2023-05-14T18:55:53.461Z,1014.2
2023-05-14T18:58:53.590Z,1014.3
2023-05-14T19:01:53.925Z,1014.2
2023-05-14T19:05:04.030Z,1014.3
2023-05-14T19:07:53.744Z,1014.2
2023-05-14T19:10:53.487Z,1014.2
2023-05-14T19:13:53.487Z,1014.3
2023-05-14T19:19:53.605Z,1014.3
2023-05-14T19:22:53.598Z,1014.3
2023-05-14T19:25:57.161Z,1014.2
2023-05-14T19:28:53.604Z,1014.2
2023-05-14T19:31:53.922Z,1014.3
2023-05-14T19:34:53.645Z,1014.3
2023-05-14T19:37:53.593Z,1014.3
2023-05-14T19:40:53.452Z,1014.3
2023-05-14T19:43:53.534Z,1014.3
2023-05-14T19:46:55.018Z,1014.3
2023-05-14T19:49:53.550Z,1014.4
2023-05-14T19:52:53.445Z,1014.4
2023-05-14T19:55:53.446Z,1014.4
2023-05-14T19:58:53.519Z,1014.3
2023-05-14T20:01:53.754Z,1014.3
2023-05-14T20:04:53.682Z,1014.3
2023-05-14T20:07:56.258Z,1014.2
2023-05-14T20:10:53.469Z,1014.2
2023-05-14T20:13:55.480Z,1014.2
2023-05-14T20:16:53.597Z,1014.3
2023-05-14T20:19:54.004Z,1014.2
2023-05-14T20:22:53.514Z,1014.2
2023-05-14T20:25:53.517Z,1014.2
2023-05-14T20:28:53.481Z,1014.2
2023-05-14T20:31:53.939Z,1014.1
2023-05-14T20:34:53.645Z,1014.1
2023-05-14T20:37:53.512Z,1014.1
2023-05-14T20:40:53.737Z,1014.2
2023-05-14T20:43:53.409Z,1014.2
2023-05-14T20:46:53.639Z,1014.2
2023-05-14T20:49:53.617Z,1014.1
2023-05-14T20:52:53.472Z,1014.1
2023-05-14T20:55:54.610Z,1014.1
2023-05-14T20:58:53.429Z,1014.1
2023-05-14T21:01:53.606Z,1014.1
2023-05-14T21:04:55.038Z,1014.0
2023-05-14T21:07:53.541Z,1014.0
2023-05-14T21:10:53.602Z,1014.0
2023-05-14T21:13:53.577Z,1014.1
2023-05-14T21:16:53.879Z,1014.1
2023-05-14T21:19:54.007Z,1013.9
2023-05-14T21:22:53.482Z,1013.9
2023-05-14T21:25:53.532Z,1013.9
2023-05-14T21:28:53.495Z,1013.9
2023-05-14T21:31:53.621Z,1013.9
2023-05-14T21:34:53.579Z,1013.9
2023-05-14T21:37:53.508Z,1013.8
2023-05-14T21:40:53.448Z,1013.8
2023-05-14T21:43:53.426Z,1013.8
2023-05-14T21:46:53.585Z,1013.8
2023-05-14T21:49:53.996Z,1013.8
2023-05-14T21:52:53.533Z,1013.8
2023-05-14T21:55:53.492Z,1013.8
2023-05-14T21:58:55.398Z,1013.8
2023-05-14T22:02:07.146Z,1013.8
2023-05-14T22:04:53.855Z,1013.9
2023-05-14T22:07:53.550Z,1013.8
2023-05-14T22:10:54.819Z,1013.8
2023-05-14T22:13:53.459Z,1013.7
2023-05-14T22:17:01.741Z,1013.7
2023-05-14T22:19:55.140Z,1013.7
2023-05-14T22:22:53.513Z,1013.6
2023-05-14T22:25:53.513Z,1013.6
2023-05-14T22:28:53.535Z,1013.7
2023-05-14T22:31:53.766Z,1013.7
2023-05-14T22:34:53.644Z,1013.7
2023-05-14T22:37:53.473Z,1013.8
2023-05-14T22:40:53.477Z,1013.7
2023-05-14T22:43:53.457Z,1013.6
2023-05-14T22:46:53.575Z,1013.6
2023-05-14T22:49:55.241Z,1013.6
2023-05-14T22:52:53.425Z,1013.5
2023-05-14T22:55:54.449Z,1013.5
2023-05-14T22:58:53.433Z,1013.5
2023-05-14T23:01:53.774Z,1013.5
2023-05-14T23:04:53.858Z,1013.6
2023-05-14T23:07:53.449Z,1013.5
2023-05-14T23:10:53.438Z,1013.4
2023-05-14T23:13:53.528Z,1013.4
2023-05-14T23:16:53.444Z,1013.4
2023-05-14T23:19:54.662Z,1013.4
2023-05-14T23:22:53.422Z,1013.4
2023-05-14T23:25:53.544Z,1013.4
2023-05-14T23:28:53.426Z,1013.4
2023-05-14T23:31:53.698Z,1013.4
2023-05-14T23:34:53.523Z,1013.3
2023-05-14T23:37:53.521Z,1013.3
2023-05-14T23:40:53.506Z,1013.3
2023-05-14T23:43:53.470Z,1013.2
2023-05-14T23:46:53.715Z,1013.2
2023-05-14T23:49:53.741Z,1013.2
2023-05-14T23:52:53.488Z,1013.2
2023-05-14T23:55:53.429Z,1013.2
2023-05-14T23:58:53.449Z,1013.0
